• Join FlightAware (Why Join?)
  • Login
  • US Flag 
09:08AM EDT


 

Airport Tracker/Info


-or-


 

Live Flight TrackerFlight Track Log ✈ N838KE ✈ 01-May-2013 ✈ PAFA / FAI - RPLL / MNL

Flight Track Log - Related Links

Times and Time Zones

All times are in EDT time to prevent confusion due to time zone crossing. See the N838KE flight status page for this flight to view local times or setup timezone preferences in your user account.

Time Position Orientation Groundspeed Altitude Reporting Facility
EDT Latitude Longitude Course Direction KTS MPH feet Rate Location/Type
03:34AM 64.8000 -148.0333 210° Southwest 260 299 7,400  Level Anchorage Center
03:35AM 64.7500 -148.1667 229° Southwest 260 299 10,500 2,100 Climbing Anchorage Center
03:36AM 64.7333 -148.3167 255° West 330 380 11,600 2,100 Climbing Anchorage Center
03:37AM 64.7000 -148.5167 249° West 330 380 14,800 2,640 Climbing Anchorage Center
03:38AM 64.2820 -148.9784 214° Southwest  Level FlightAware Approximate
03:38AM 64.6667 -148.7333 250° West 340 391 16,900  Level Anchorage Center
03:39AM 64.1804 -149.1363 214° Southwest  Level FlightAware Approximate
03:39AM 64.6333 -148.9333 249° West 350 403 19,500  Level Anchorage Center
03:40AM 64.0758 -149.2824 210° Southwest  Level FlightAware Approximate
03:40AM 64.6000 -149.1667 252° West 350 403 21,700  Level Anchorage Center
03:41AM 64.5667 -149.3833 250° West 360 414 23,800 1,980 Climbing Anchorage Center
03:42AM 64.5333 -149.6000 250° West 370 426 25,700 1,920 Climbing Anchorage Center
03:43AM 64.4833 -149.8333 244° Southwest 380 437 27,700 1,680 Climbing Anchorage Center
03:44AM 64.4500 -150.0500 250° West 370 426 29,100 1,320 Climbing Anchorage Center
03:45AM 64.4167 -150.2833 252° West 380 437 30,400 1,260 Climbing Anchorage Center
03:46AM 64.3667 -150.5333 245° Southwest 400 460 31,700 1,200 Climbing Anchorage Center
03:47AM 64.3333 -150.7667 252° West 400 460 32,800 1,260 Climbing Anchorage Center
03:48AM 64.2833 -151.0167 245° Southwest 400 460 34,300 1,260 Climbing Anchorage Center
03:49AM 64.2500 -151.2500 252° West 410 472 35,400 1,020 Climbing Anchorage Center
03:50AM 64.2000 -151.5000 245° Southwest 410 472 36,400 960 Climbing Anchorage Center
03:51AM 64.1500 -151.7500 245° Southwest 410 472 37,400 840 Climbing Anchorage Center
03:52AM 64.1167 -152.0000 253° West 420 483 38,200 840 Climbing Anchorage Center
03:53AM 64.0667 -152.2333 244° Southwest 420 483 39,100 900 Climbing Anchorage Center
03:54AM 64.0167 -152.4833 246° West 420 483 40,000 420 Climbing Anchorage Center
03:55AM 63.9667 -152.7333 246° West 430 495 40,000  Level Anchorage Center
03:56AM 63.9167 -153.0000 247° West 430 495 40,000  Level Anchorage Center
03:57AM 63.8667 -153.2667 247° West 440 506 40,000  Level Anchorage Center
03:58AM 63.8167 -153.5167 246° West 440 506 40,000  Level Anchorage Center
03:59AM 63.7667 -153.7667 246° West 430 495 40,000  Level Anchorage Center
04:00AM 63.7167 -154.0167 246° West 440 506 40,000  Level Anchorage Center
04:01AM 63.6667 -154.2833 247° West 440 506 40,000  Level Anchorage Center
04:02AM 63.6167 -154.5333 246° West 440 506 40,000  Level Anchorage Center
04:03AM 63.5667 -154.7833 246° West 440 506 40,000  Level Anchorage Center
04:05AM 63.4500 -155.2833 243° Southwest 440 506 40,000  Level Anchorage Center
04:06AM 63.4000 -155.5167 245° Southwest 440 506 40,000  Level Anchorage Center
04:07AM 63.3500 -155.7667 246° West 440 506 40,000  Level Anchorage Center
04:08AM 63.3000 -156.0167 246° West 440 506 40,000  Level Anchorage Center
04:09AM 63.2333 -156.2500 238° Southwest 440 506 40,000  Level Anchorage Center
04:10AM 63.1833 -156.5000 246° West 440 506 40,000  Level Anchorage Center
04:11AM 63.1333 -156.7500 246° West 450 518 40,000  Level Anchorage Center
04:12AM 63.0667 -157.0000 240° Southwest 450 518 40,000  Level Anchorage Center
04:13AM 63.0167 -157.2333 245° Southwest 440 506 40,000  Level Anchorage Center
04:14AM 62.9500 -157.4833 240° Southwest 450 518 40,000  Level Anchorage Center
04:15AM 62.9000 -157.7167 245° Southwest 450 518 40,000  Level Anchorage Center
04:16AM 62.8333 -157.9667 240° Southwest 450 518 40,000  Level Anchorage Center
04:17AM 62.7833 -158.2167 246° West 450 518 40,000  Level Anchorage Center
04:18AM 62.7167 -158.4500 238° Southwest 450 518 40,000  Level Anchorage Center
04:19AM 62.6500 -158.7000 240° Southwest 460 529 40,000  Level Anchorage Center
04:20AM 62.6000 -158.9500 247° West 450 518 40,000  Level Anchorage Center
04:21AM 62.5333 -159.1833 238° Southwest 460 529 40,000  Level Anchorage Center
04:22AM 62.4667 -159.4333 240° Southwest 460 529 40,000  Level Anchorage Center
04:23AM 62.4000 -159.6667 238° Southwest 460 529 40,000  Level Anchorage Center
04:24AM 62.3333 -159.9167 240° Southwest 450 518 40,000  Level Anchorage Center
04:25AM 62.2833 -160.1500 245° Southwest 460 529 40,000  Level Anchorage Center
04:26AM 62.2167 -160.3833 239° Southwest 460 529 40,000  Level Anchorage Center
04:27AM 62.1500 -160.6333 240° Southwest 460 529 40,000  Level Anchorage Center
04:28AM 62.0667 -160.8833 235° Southwest 460 529 40,000  Level Anchorage Center
04:29AM 62.0000 -161.1333 240° Southwest 470 541 40,000  Level Anchorage Center
04:30AM 61.9333 -161.3667 239° Southwest 460 529 40,000  Level Anchorage Center
04:31AM 61.8667 -161.6000 239° Southwest 460 529 40,000  Level Anchorage Center
04:32AM 61.8000 -161.8167 237° Southwest 450 518 40,000  Level Anchorage Center
04:33AM 61.7333 -162.0500 239° Southwest 460 529 40,000  Level Anchorage Center
04:34AM 61.6667 -162.2833 239° Southwest 450 518 40,000  Level Anchorage Center
04:35AM 61.6000 -162.5167 239° Southwest 450 518 40,000  Level Anchorage Center
04:36AM 61.5333 -162.7500 239° Southwest 460 529 40,000  Level Anchorage Center
04:37AM 61.4667 -162.9667 237° Southwest 470 541 40,000  Level Anchorage Center
04:38AM 61.4000 -163.2000 239° Southwest 460 529 40,000  Level Anchorage Center
04:39AM 61.3167 -163.4333 233° Southwest 460 529 40,000  Level Anchorage Center
04:40AM 61.2500 -163.6500 237° Southwest 460 529 40,000  Level Anchorage Center
04:41AM 61.1833 -163.8833 239° Southwest 460 529 40,000  Level Anchorage Center
04:42AM 61.1167 -164.1000 238° Southwest 460 529 40,000  Level Anchorage Center
04:43AM 61.0333 -164.3333 234° Southwest 460 529 40,000  Level Anchorage Center
04:44AM 60.9667 -164.5500 238° Southwest 460 529 40,000  Level Anchorage Center
04:45AM 60.8833 -164.7667 232° Southwest 460 529 40,000  Level Anchorage Center
04:46AM 60.8167 -164.9833 238° Southwest 450 518 40,000  Level Anchorage Center
04:47AM 60.7833 -165.2500 256° West 470 541 40,000  Level Anchorage Center
04:48AM 60.7333 -165.5000 248° West 460 529 40,000  Level Anchorage Center
04:49AM 60.7000 -165.7500 255° West 470 541 40,000  Level Anchorage Center
04:50AM 60.6500 -166.0167 249° West 470 541 40,000  Level Anchorage Center
04:51AM 60.6167 -166.2667 255° West 470 541 40,000  Level Anchorage Center
04:53AM 60.5667 -166.5667 251° West 460 529 40,000  Level Anchorage Center
04:54AM 60.5167 -166.8167 248° West 460 529 40,000  Level Anchorage Center
04:55AM 60.4833 -167.0667 255° West 470 541 40,000  Level Anchorage Center
04:56AM 60.4333 -167.3167 248° West 460 529 40,000  Level Anchorage Center
04:57AM 60.3833 -167.5667 248° West 470 541 40,000  Level Anchorage Center
04:58AM 60.3333 -167.8167 248° West 460 529 40,000  Level Anchorage Center
04:59AM 60.3000 -168.0500 254° West 470 541 40,000  Level Anchorage Center
05:00AM 60.2500 -168.3000 248° West 470 541 40,000  Level Anchorage Center
05:01AM 60.2000 -168.5667 249° West 480 552 40,000  Level Anchorage Center
05:02AM 60.1500 -168.8167 248° West 470 541 40,000  Level Anchorage Center
05:03AM 60.1167 -169.0500 254° West 470 541 40,000  Level Anchorage Center
05:04AM 60.0667 -169.3000 248° West 460 529 40,000  Level Anchorage Center
05:05AM 60.0167 -169.5500 248° West 480 552 40,000  Level Anchorage Center
05:06AM 59.9667 -169.7833 247° West 470 541 40,000  Level Anchorage Center
05:07AM 59.9167 -170.0333 248° West 470 541 40,000  Level Anchorage Center
05:08AM 59.8667 -170.2833 248° West 470 541 40,000  Level Anchorage Center
05:09AM 59.8167 -170.5167 247° West 470 541 40,000  Level Anchorage Center
05:10AM 59.7667 -170.7667 248° West 470 541 40,000  Level Anchorage Center
05:11AM 59.7167 -171.0000 247° West 480 552 40,000  Level Anchorage Center
05:12AM 59.6667 -171.2500 248° West 480 552 40,000  Level Anchorage Center
05:13AM 59.6167 -171.5000 249° West 470 541 40,000  Level Anchorage Center
05:14AM 59.5667 -171.7333 247° West 470 541 40,000  Level Anchorage Center
05:15AM 59.5167 -171.9667 247° West 480 552 40,000  Level Anchorage Center
05:16AM 59.4667 -172.2333 250° West 480 552 40,000  Level Anchorage Center
05:17AM 59.4167 -172.4667 247° West 480 552 40,000  Level Anchorage Center
05:18AM 59.3667 -172.7167 249° West 480 552 40,000  Level Anchorage Center
05:19AM 59.3167 -172.9500 247° West 480 552 40,000  Level Anchorage Center
05:20AM 59.2667 -173.2000 249° West 470 541 40,000  Level Anchorage Center
05:21AM 59.2167 -173.4333 247° West 470 541 40,000  Level Anchorage Center
05:22AM 59.1667 -173.6667 247° West 470 541 40,000  Level Anchorage Center
05:23AM 59.1000 -173.9167 243° Southwest 480 552 40,000  Level Anchorage Center
05:24AM 59.0500 -174.1500 247° West 480 552 40,000  Level Anchorage Center
05:25AM 59.0000 -174.4000 249° West 480 552 40,000  Level Anchorage Center
05:26AM 58.9500 -174.6333 248° West 480 552 40,000  Level Anchorage Center
05:27AM 58.9000 -174.8667 248° West 470 541 40,000  Level Anchorage Center
05:28AM 58.8500 -175.1167 249° West 480 552 40,000  Level Anchorage Center
05:29AM 58.7833 -175.3500 241° Southwest 480 552 40,000  Level Anchorage Center
05:30AM 58.7333 -175.5833 248° West 470 541 40,000  Level Anchorage Center
05:31AM 58.6833 -175.8167 248° West 470 541 40,000  Level Anchorage Center
05:32AM 58.6333 -176.0500 248° West 470 541 40,000  Level Anchorage Center
05:33AM 58.5667 -176.2667 240° Southwest 470 541 40,000  Level Anchorage Center
05:34AM 58.5167 -176.5167 249° West 480 552 40,000  Level Anchorage Center
05:35AM 58.4500 -176.7500 241° Southwest 480 552 40,000  Level Anchorage Center
05:36AM 58.4000 -176.9667 246° West 470 541 40,000  Level Anchorage Center
05:37AM 58.3500 -177.2000 248° West 480 552 40,000  Level Anchorage Center
05:40AM 58.2589 -177.5642 245° Southwest  Level FlightAware Approximate
05:46AM 57.8333 -179.2000 243° Southwest 478 550 40,000  Level Anchorage Center
05:47AM 57.8808 -179.0161 244° Southwest  Level FlightAware Approximate
05:48AM 57.8254 -179.2209 243° Southwest  Level FlightAware Approximate
05:49AM 57.7697 -179.4252 243° Southwest  Level FlightAware Approximate
05:50AM 57.7137 -179.6288 243° Southwest  Level FlightAware Approximate
05:51AM 57.6574 -179.8318 243° Southwest  Level FlightAware Approximate
05:52AM 57.4759 179.5182 242° Southwest 478 550 40,000  Level FlightAware Transoceanic
05:53AM 57.4150 179.3070 242° Southwest 478 550 40,000  Level FlightAware Transoceanic
05:54AM 57.3538 179.0965 242° Southwest 478 550 40,000  Level FlightAware Transoceanic
05:55AM 57.2923 178.8867 241° Southwest 478 550 40,000  Level FlightAware Transoceanic
05:56AM 57.2304 178.6777 241° Southwest 478 550 40,000  Level FlightAware Transoceanic
05:56AM 57.2500 178.7167 241° Southwest 470 541 40,000  Level Anchorage Center
05:57AM 57.1682 178.4693 241° Southwest 478 550 40,000  Level FlightAware Transoceanic
05:58AM 57.1056 178.2616 241° Southwest 478 550 40,000  Level FlightAware Transoceanic
05:59AM 57.0427 178.0547 241° Southwest 478 550 40,000  Level FlightAware Transoceanic
06:00AM 56.9795 177.8484 241° Southwest 478 550 40,000  Level FlightAware Transoceanic
06:01AM 56.9159 177.6428 240° Southwest 478 550 40,000  Level FlightAware Transoceanic
06:02AM 56.8684 177.4692 240° Southwest 470 541 40,000  Level FlightAware Transoceanic
06:02AM 56.8333 177.3500 240° Southwest 471 542 40,000  Level Anchorage Center
06:03AM 56.8036 177.2638 240° Southwest 470 541 40,000  Level FlightAware Transoceanic
06:04AM 56.7384 177.0591 240° Southwest 470 541 40,000  Level FlightAware Transoceanic
06:05AM 56.6730 176.8551 240° Southwest 470 541 40,000  Level FlightAware Transoceanic
06:05AM 56.6333 176.7333 240° Southwest 470 541 40,000  Level Anchorage Center
06:06AM 56.6072 176.6518 239° Southwest 470 541 40,000  Level FlightAware Transoceanic
06:07AM 56.5410 176.4492 239° Southwest 470 541 40,000  Level FlightAware Transoceanic
06:08AM 56.4462 176.1555 239° Southwest 471 542 40,000  Level FlightAware Transoceanic
06:09AM 56.3805 175.9589 239° Southwest 471 542 40,000  Level FlightAware Transoceanic
06:10AM 56.3146 175.7628 239° Southwest 471 542 40,000  Level FlightAware Transoceanic
06:11AM 56.2483 175.5675 238° Southwest 471 542 40,000 1,860 Level FlightAware Transoceanic
06:11AM 56.2500 175.5667 238° Southwest 480 552 42,300  Climbing Anchorage Center
06:12AM 56.1760 175.3614 238° Southwest 470 541 40,000 360 Descending FlightAware Transoceanic
06:12AM 56.1833 175.4000 234° Southwest 470 541 42,700  Climbing Anchorage Center
06:13AM 56.1094 175.1681 238° Southwest 470 541 40,000 300 Descending FlightAware Transoceanic
06:13AM 56.1000 175.1833 235° Southwest 470 541 43,000  Climbing Anchorage Center
06:14AM 56.0426 174.9755 238° Southwest 470 541 40,000  Descending FlightAware Transoceanic
06:14AM 56.0500 175.0167 242° Southwest 470 541 43,000  Climbing Anchorage Center
06:15AM 55.9754 174.7835 238° Southwest 470 541 40,000  Descending FlightAware Transoceanic
06:15AM 55.9667 174.7833 238° Southwest 480 552 43,000  Climbing Anchorage Center
06:16AM 55.9080 174.5922 238° Southwest 470 541 40,000  Descending FlightAware Transoceanic
06:16AM 55.9000 174.5667 241° Southwest 480 552 43,000 2,460 Climbing Anchorage Center
06:17AM 55.8333 174.4000 235° Southwest 470 541 43,000  Level Anchorage Center
06:18AM 55.7500 174.1833 236° Southwest 470 541 43,000  Level Anchorage Center
06:19AM 55.7000 174.0167 242° Southwest 470 541 43,000  Level Anchorage Center
06:20AM 55.6167 173.8000 236° Southwest 460 529 43,000  Level Anchorage Center
06:21AM 55.5500 173.6333 235° Southwest 470 541 43,000  Level Anchorage Center
06:22AM 55.4833 173.4333 240° Southwest 470 541 43,000  Level Anchorage Center
06:23AM 55.4167 173.2667 235° Southwest 470 541 43,000  Level Anchorage Center
06:24AM 55.3333 173.0500 236° Southwest 470 541 43,000  Level Anchorage Center
06:25AM 55.2500 172.8500 234° Southwest 470 541 43,000  Level Anchorage Center
06:26AM 55.2000 172.6833 242° Southwest 470 541 43,000  Level Anchorage Center
06:27AM 55.1167 172.4667 236° Southwest 470 541 43,000  Level Anchorage Center
06:28AM 55.0500 172.3000 235° Southwest 490 564 43,000  Level Anchorage Center
06:29AM 54.9667 172.1000 234° Southwest 470 541 43,000  Level Anchorage Center
06:30AM 54.9000 171.9333 235° Southwest 470 541 43,000  Level Anchorage Center
06:31AM 54.8167 171.7333 234° Southwest 470 541 43,000  Level Anchorage Center
06:32AM 54.7333 171.5333 234° Southwest 480 552 43,000  Level Anchorage Center
06:33AM 54.6667 171.3667 235° Southwest 480 552 43,000  Level Anchorage Center
06:34AM 54.5833 171.1667 234° Southwest 480 552 43,000  Level Anchorage Center
06:35AM 54.5167 171.0000 235° Southwest 470 541 43,000  Level Anchorage Center
06:36AM 54.4333 170.8000 234° Southwest 480 552 43,000  Level Anchorage Center
06:37AM 54.3667 170.6500 233° Southwest 470 541 43,000  Level Anchorage Center
06:38AM 54.2833 170.4500 235° Southwest 480 552 43,000  Level Anchorage Center
06:39AM 54.2167 170.3000 233° Southwest 450 518 43,000  Level Anchorage Center
06:40AM 54.1333 170.0833 237° Southwest 490 564 43,000  Level Anchorage Center
06:41AM 54.0333 169.9000 227° Southwest 490 564 43,000  Level Anchorage Center
06:42AM 53.9667 169.7500 233° Southwest 470 541 43,000  Level Anchorage Center
06:43AM 53.8833 169.5667 232° Southwest 450 518 43,000  Level Anchorage Center
06:44AM 53.8167 169.4167 233° Southwest 460 529 43,000  Level Anchorage Center
06:45AM 53.7333 169.2333 233° Southwest 460 529 43,000  Level Anchorage Center
06:46AM 53.6667 169.0500 239° Southwest 520 598 43,000  Level Anchorage Center
06:47AM 53.6167 168.8500 247° West 450 518 43,000  Level Anchorage Center
06:48AM 53.5500 168.6500 241° Southwest 460 529 43,000  Level Anchorage Center
06:49AM 53.4833 168.5000 233° Southwest 440 506 43,000  Level Anchorage Center
06:50AM 53.4167 168.2833 243° Southwest 470 541 43,000  Level Anchorage Center
06:51AM 53.3667 168.1333 241° Southwest 460 529 43,000  Level Anchorage Center
06:52AM 53.3000 167.9333 241° Southwest 460 529 43,000  Level Anchorage Center
06:53AM 53.2333 167.7833 233° Southwest 450 518 43,000  Level Anchorage Center
06:54AM 53.1667 167.5833 241° Southwest 470 541 43,000  Level Anchorage Center
06:57AM 53.0568 167.2755 239° Southwest  Level FlightAware Approximate
07:03AM 52.6000 166.0167 238° Southwest 451 519 43,000  Level Anchorage Center
07:04AM 52.6095 166.0598 239° Southwest  Level FlightAware Approximate
07:05AM 52.5446 165.8882 238° Southwest  Level FlightAware Approximate
07:06AM 52.4794 165.7171 238° Southwest  Level FlightAware Approximate
07:07AM 52.4140 165.5464 238° Southwest  Level FlightAware Approximate
07:08AM 52.3484 165.3763 238° Southwest  Level FlightAware Approximate
07:09AM 52.1923 164.9629 237° Southwest 451 519 43,000  Level FlightAware Transoceanic
07:10AM 52.1234 164.7892 237° Southwest 451 519 43,000  Level FlightAware Transoceanic
07:11AM 52.0543 164.6160 237° Southwest 451 519 43,000  Level FlightAware Transoceanic
07:12AM 51.9850 164.4433 237° Southwest 451 519 43,000  Level FlightAware Transoceanic
07:12AM 51.9667 164.3833 237° Southwest 447 514 43,000  Level Anchorage Center
07:13AM 51.9154 164.2712 237° Southwest 451 519 43,000  Level FlightAware Transoceanic
07:14AM 51.8455 164.0996 237° Southwest 451 519 43,000  Level FlightAware Transoceanic
07:15AM 51.7754 163.9285 236° Southwest 451 519 43,000  Level FlightAware Transoceanic
07:16AM 51.7050 163.7580 236° Southwest 451 519 43,000  Level FlightAware Transoceanic
07:17AM 51.6344 163.5880 236° Southwest 451 519 43,000  Level FlightAware Transoceanic
07:17AM 51.6500 163.6500 236° Southwest 463 533 43,000  Level Anchorage Center
07:18AM 51.5635 163.4185 236° Southwest 451 519 43,000  Level FlightAware Transoceanic
07:19AM 51.4778 163.2040 236° Southwest 447 514 43,000  Level FlightAware Transoceanic
07:20AM 51.4070 163.0376 236° Southwest 447 514 43,000  Level FlightAware Transoceanic
07:21AM 51.3360 162.8717 235° Southwest 447 514 43,000  Level FlightAware Transoceanic
07:22AM 51.2648 162.7063 235° Southwest 447 514 43,000  Level FlightAware Transoceanic
07:22AM 51.2833 162.7500 235° Southwest 463 533 43,000  Level Anchorage Center
07:23AM 51.2181 162.6260 236° Southwest 463 533 43,000  Level FlightAware Transoceanic
07:24AM 51.1452 162.4572 235° Southwest 463 533 43,000  Level FlightAware Transoceanic
07:25AM 51.0721 162.2890 235° Southwest 463 533 43,000  Level FlightAware Transoceanic
07:26AM 50.9988 162.1213 235° Southwest 463 533 43,000  Level FlightAware Transoceanic
07:27AM 50.9252 161.9541 235° Southwest 463 533 43,000  Level FlightAware Transoceanic
07:28AM 50.8459 161.7554 235° Southwest 463 533 43,000  Level FlightAware Transoceanic
07:29AM 50.7722 161.5915 235° Southwest 463 533 43,000  Level FlightAware Transoceanic
07:30AM 50.6982 161.4281 234° Southwest 463 533 43,000  Level FlightAware Transoceanic
07:31AM 50.6241 161.2652 234° Southwest 463 533 43,000  Level FlightAware Transoceanic
07:31AM 50.5833 161.1833 234° Southwest 455 524 43,000  Level Anchorage Center
07:32AM 50.5497 161.1028 234° Southwest 463 533 43,000  Level FlightAware Transoceanic
07:33AM 50.4750 160.9409 234° Southwest 463 533 43,000  Level FlightAware Transoceanic
07:34AM 50.4002 160.7796 234° Southwest 463 533 43,000  Level FlightAware Transoceanic
07:35AM 50.3251 160.6187 234° Southwest 463 533 43,000  Level FlightAware Transoceanic
07:36AM 50.2498 160.4583 234° Southwest 463 533 43,000  Level FlightAware Transoceanic
07:37AM 50.1743 160.2985 234° Southwest 463 533 43,000  Level FlightAware Transoceanic
07:37AM 50.2000 160.3833 234° Southwest 455 524 43,000  Level Anchorage Center
07:38AM 50.1142 160.1751 234° Southwest 455 524 43,000  Level FlightAware Transoceanic
07:39AM 50.0351 160.0090 233° Southwest 455 524 43,000  Level FlightAware Transoceanic
07:40AM 49.9559 159.8434 233° Southwest 455 524 43,000  Level FlightAware Transoceanic
07:41AM 49.8764 159.6784 233° Southwest 455 524 43,000  Level FlightAware Transoceanic
07:42AM 49.7966 159.5139 233° Southwest 455 524 43,000  Level FlightAware Transoceanic
07:43AM 49.7167 159.3500 233° Southwest 455 524 43,000  Level FlightAware Transoceanic
07:44AM 49.6394 159.1923 233° Southwest 455 524 43,000  Level FlightAware Transoceanic
07:45AM 49.5619 159.0351 233° Southwest 455 524 43,000  Level FlightAware Transoceanic
07:46AM 49.4843 158.8784 233° Southwest 455 524 43,000  Level FlightAware Transoceanic
07:47AM 49.4064 158.7222 232° Southwest 455 524 43,000  Level FlightAware Transoceanic
07:48AM 49.3283 158.5665 232° Southwest 455 524 43,000  Level FlightAware Transoceanic
07:49AM 49.2500 158.4113 232° Southwest 455 524 43,000  Level FlightAware Transoceanic
07:50AM 49.1714 158.2565 232° Southwest 455 524 43,000  Level FlightAware Transoceanic
07:51AM 49.0927 158.1023 232° Southwest 455 524 43,000  Level FlightAware Transoceanic
07:52AM 49.0138 157.9485 232° Southwest 455 524 43,000  Level FlightAware Transoceanic
07:53AM 48.9347 157.7953 232° Southwest 455 524 43,000  Level FlightAware Transoceanic
07:54AM 48.8553 157.6425 232° Southwest 455 524 43,000  Level FlightAware Transoceanic
07:55AM 48.7758 157.4902 232° Southwest 455 524 43,000  Level FlightAware Transoceanic
07:56AM 48.6960 157.3384 231° Southwest 455 524 43,000  Level FlightAware Transoceanic
07:57AM 48.6161 157.1871 231° Southwest 455 524 43,000  Level FlightAware Transoceanic
07:58AM 48.5360 157.0362 231° Southwest 455 524 43,000  Level FlightAware Transoceanic
07:59AM 48.4557 156.8859 231° Southwest 455 524 43,000  Level FlightAware Transoceanic
08:00AM 48.3751 156.7360 231° Southwest 455 524 43,000  Level FlightAware Transoceanic
08:01AM 48.2944 156.5865 231° Southwest 455 524 43,000  Level FlightAware Transoceanic
08:02AM 48.2135 156.4376 231° Southwest 455 524 43,000  Level FlightAware Transoceanic
08:03AM 48.1324 156.2891 231° Southwest 455 524 43,000  Level FlightAware Transoceanic
08:04AM 48.0511 156.1411 231° Southwest 455 524 43,000  Level FlightAware Transoceanic
08:05AM 47.9696 155.9936 230° Southwest 455 524 43,000  Level FlightAware Transoceanic
08:06AM 47.8880 155.8465 230° Southwest 455 524 43,000  Level FlightAware Transoceanic
08:07AM 47.8061 155.6999 230° Southwest 455 524 43,000  Level FlightAware Transoceanic
08:08AM 47.7240 155.5537 230° Southwest 455 524 43,000  Level FlightAware Transoceanic
08:09AM 47.6418 155.4080 230° Southwest 455 524 43,000  Level FlightAware Transoceanic
08:10AM 47.5594 155.2628 230° Southwest 455 524 43,000  Level FlightAware Transoceanic
08:11AM 47.4768 155.1180 230° Southwest 455 524 43,000  Level FlightAware Transoceanic
08:12AM 47.3940 154.9737 230° Southwest 455 524 43,000  Level FlightAware Transoceanic
08:13AM 47.3111 154.8298 230° Southwest 455 524 43,000  Level FlightAware Transoceanic
08:14AM 47.2279 154.6864 229° Southwest 455 524 43,000  Level FlightAware Transoceanic
08:15AM 47.1446 154.5435 229° Southwest 455 524 43,000  Level FlightAware Transoceanic
08:16AM 47.0611 154.4009 229° Southwest 455 524 43,000  Level FlightAware Transoceanic
08:17AM 46.9775 154.2589 229° Southwest 455 524 43,000  Level FlightAware Transoceanic
08:18AM 46.8936 154.1172 229° Southwest 455 524 43,000  Level FlightAware Transoceanic
08:19AM 46.8096 153.9760 229° Southwest 455 524 43,000  Level FlightAware Transoceanic
08:20AM 46.7254 153.8353 229° Southwest 455 524 43,000  Level FlightAware Transoceanic
08:21AM 46.6410 153.6950 229° Southwest 455 524 43,000  Level FlightAware Transoceanic
08:22AM 46.5565 153.5551 229° Southwest 455 524 43,000  Level FlightAware Transoceanic
08:23AM 46.4718 153.4157 229° Southwest 455 524 43,000  Level FlightAware Transoceanic
08:24AM 46.3869 153.2767 228° Southwest 455 524 43,000  Level FlightAware Transoceanic
08:25AM 46.3019 153.1381 228° Southwest 455 524 43,000  Level FlightAware Transoceanic
08:26AM 46.2441 152.9814 242° Southwest  Level FlightAware Approximate
08:27AM 46.1861 152.8249 242° Southwest  Level FlightAware Approximate
08:28AM 46.1279 152.6688 242° Southwest  Level FlightAware Approximate
08:29AM 46.1236 152.6674 229° Southwest  Level FlightAware Approximate
08:30AM 46.0423 152.5348 229° Southwest  Level FlightAware Approximate
08:31AM 45.9608 152.4025 228° Southwest  Level FlightAware Approximate
08:32AM 45.8791 152.2707 228° Southwest  Level FlightAware Approximate
08:33AM 45.7973 152.1392 228° Southwest  Level FlightAware Approximate
08:34AM 45.7153 152.0081 228° Southwest  Level FlightAware Approximate
08:35AM 45.6332 151.8774 228° Southwest  Level FlightAware Approximate
08:36AM 45.5509 151.7471 228° Southwest  Level FlightAware Approximate
08:37AM 45.4687 151.6169 228° Southwest  Level FlightAware Approximate
08:38AM 45.3865 151.4868 228° Southwest  Level FlightAware Approximate
08:39AM 45.3042 151.3571 228° Southwest  Level FlightAware Approximate
08:40AM 45.2217 151.2278 228° Southwest  Level FlightAware Approximate
08:41AM 45.1391 151.0988 228° Southwest  Level FlightAware Approximate
08:42AM 45.0564 150.9703 228° Southwest  Level FlightAware Approximate
08:43AM 44.9735 150.8421 228° Southwest  Level FlightAware Approximate
08:44AM 44.8905 150.7142 228° Southwest  Level FlightAware Approximate
08:45AM 44.8073 150.5867 227° Southwest  Level FlightAware Approximate
08:46AM 44.7240 150.4596 227° Southwest  Level FlightAware Approximate
08:47AM 44.6405 150.3329 227° Southwest  Level FlightAware Approximate
08:48AM 44.5569 150.2065 227° Southwest  Level FlightAware Approximate
08:49AM 44.4732 150.0805 227° Southwest  Level FlightAware Approximate
08:50AM 44.3893 149.9549 227° Southwest  Level FlightAware Approximate
08:51AM 44.3053 149.8296 227° Southwest  Level FlightAware Approximate
08:52AM 44.2212 149.7047 227° Southwest  Level FlightAware Approximate
08:53AM 44.1369 149.5801 227° Southwest  Level FlightAware Approximate
08:54AM 44.0525 149.4559 227° Southwest  Level FlightAware Approximate
08:55AM 43.9679 149.3320 227° Southwest  Level FlightAware Approximate
08:56AM 43.8833 149.2085 226° Southwest  Level FlightAware Approximate
08:57AM 43.7984 149.0853 226° Southwest  Level FlightAware Approximate
08:58AM 43.7135 148.9625 226° Southwest  Level FlightAware Approximate
08:59AM 43.6284 148.8401 226° Southwest  Level FlightAware Approximate
09:00AM 43.5432 148.7180 226° Southwest  Level FlightAware Approximate
09:01AM 43.4579 148.5962 226° Southwest  Level FlightAware Approximate
09:02AM 43.3724 148.4748 226° Southwest  Level FlightAware Approximate
09:03AM 43.2868 148.3537 226° Southwest  Level FlightAware Approximate
09:04AM 43.2011 148.2329 226° Southwest  Level FlightAware Approximate
09:05AM 43.1152 148.1125 226° Southwest  Level FlightAware Approximate
09:06AM 43.0292 147.9925 226° Southwest  Level FlightAware Approximate
09:07AM 42.9431 147.8727 226° Southwest  Level FlightAware Approximate
09:08AM 42.8569 147.7533 225° Southwest  Level FlightAware Approximate
09:09AM 42.7705 147.6343 225° Southwest  Level FlightAware Approximate
09:10AM 42.6841 147.5155 225° Southwest  Level FlightAware Approximate
09:11AM 42.5975 147.3972 225° Southwest  Level FlightAware Approximate
09:12AM 42.5108 147.2791 225° Southwest  Level FlightAware Approximate
09:13AM 42.4239 147.1613 225° Southwest  Level FlightAware Approximate
09:14AM 42.3370 147.0439 225° Southwest  Level FlightAware Approximate
09:15AM 42.2499 146.9268 225° Southwest  Level FlightAware Approximate
09:16AM 42.1627 146.8101 225° Southwest  Level FlightAware Approximate
09:17AM 42.0754 146.6936 225° Southwest  Level FlightAware Approximate
09:18AM 41.9879 146.5775 225° Southwest  Level FlightAware Approximate
09:19AM 41.9004 146.4617 225° Southwest  Level FlightAware Approximate
09:20AM 41.8127 146.3462 224° Southwest  Level FlightAware Approximate
09:21AM 41.7249 146.2310 224° Southwest  Level FlightAware Approximate
09:22AM 41.6371 146.1161 224° Southwest  Level FlightAware Approximate
09:23AM 41.5490 146.0016 224° Southwest  Level FlightAware Approximate
09:24AM 41.4609 145.8873 224° Southwest  Level FlightAware Approximate
09:25AM 41.3727 145.7734 224° Southwest  Level FlightAware Approximate
09:26AM 41.2843 145.6598 224° Southwest  Level FlightAware Approximate
09:27AM 41.1959 145.5465 224° Southwest  Level FlightAware Approximate
09:28AM 41.1073 145.4335 224° Southwest  Level FlightAware Approximate
09:29AM 41.0186 145.3208 224° Southwest  Level FlightAware Approximate
09:30AM 40.9298 145.2084 224° Southwest  Level FlightAware Approximate
09:31AM 40.8409 145.0963 224° Southwest  Level FlightAware Approximate
09:32AM 40.7519 144.9845 224° Southwest  Level FlightAware Approximate
09:33AM 40.6628 144.8730 224° Southwest  Level FlightAware Approximate
09:34AM 40.5736 144.7618 223° Southwest  Level FlightAware Approximate
09:35AM 40.4843 144.6509 223° Southwest  Level FlightAware Approximate
09:36AM 40.3948 144.5403 223° Southwest  Level FlightAware Approximate
09:37AM 40.3053 144.4300 223° Southwest  Level FlightAware Approximate
09:38AM 40.2157 144.3199 223° Southwest  Level FlightAware Approximate
09:39AM 40.1259 144.2102 223° Southwest  Level FlightAware Approximate
09:40AM 40.0361 144.1008 223° Southwest  Level FlightAware Approximate
09:41AM 39.9461 143.9916 223° Southwest  Level FlightAware Approximate
09:42AM 39.8561 143.8828 223° Southwest  Level FlightAware Approximate
09:43AM 39.7659 143.7742 223° Southwest  Level FlightAware Approximate
09:44AM 39.6756 143.6659 223° Southwest  Level FlightAware Approximate
09:45AM 39.5853 143.5579 223° Southwest  Level FlightAware Approximate
09:46AM 39.4948 143.4501 223° Southwest  Level FlightAware Approximate
09:47AM 39.4043 143.3427 223° Southwest  Level FlightAware Approximate
09:48AM 39.3137 143.2354 222° Southwest  Level FlightAware Approximate
09:49AM 39.2229 143.1285 222° Southwest  Level FlightAware Approximate
09:50AM 39.1321 143.0218 222° Southwest  Level FlightAware Approximate
09:51AM 39.0412 142.9155 222° Southwest  Level FlightAware Approximate
09:52AM 38.9502 142.8094 222° Southwest  Level FlightAware Approximate
09:53AM 38.8591 142.7035 222° Southwest  Level FlightAware Approximate
09:54AM 38.7679 142.5979 222° Southwest  Level FlightAware Approximate
09:55AM 38.6766 142.4926 222° Southwest  Level FlightAware Approximate
09:56AM 38.5852 142.3876 222° Southwest  Level FlightAware Approximate
09:57AM 38.4937 142.2829 222° Southwest  Level FlightAware Approximate
09:58AM 38.4021 142.1783 222° Southwest  Level FlightAware Approximate
09:59AM 38.3104 142.0741 222° Southwest  Level FlightAware Approximate
10:00AM 38.2187 141.9702 222° Southwest  Level FlightAware Approximate
10:01AM 38.1268 141.8664 222° Southwest  Level FlightAware Approximate
10:02AM 38.0349 141.7630 222° Southwest  Level FlightAware Approximate
10:03AM 37.9428 141.6598 221° Southwest  Level FlightAware Approximate
10:04AM 37.8507 141.5569 221° Southwest  Level FlightAware Approximate
10:05AM 37.7585 141.4542 221° Southwest  Level FlightAware Approximate
10:06AM 37.6661 141.3518 221° Southwest  Level FlightAware Approximate
10:07AM 37.5737 141.2496 221° Southwest  Level FlightAware Approximate
10:08AM 37.4813 141.1477 221° Southwest  Level FlightAware Approximate
10:09AM 37.3889 141.0459 221° Southwest  Level FlightAware Approximate
10:10AM 37.2963 140.9443 221° Southwest  Level FlightAware Approximate
10:11AM 37.2037 140.8429 221° Southwest  Level FlightAware Approximate
10:12AM 37.1110 140.7418 221° Southwest  Level FlightAware Approximate
10:13AM 37.0183 140.6410 221° Southwest  Level FlightAware Approximate
10:14AM 36.9254 140.5404 221° Southwest  Level FlightAware Approximate
10:15AM 36.8325 140.4400 221° Southwest  Level FlightAware Approximate
10:16AM 36.7394 140.3399 221° Southwest  Level FlightAware Approximate
10:17AM 36.6794 140.2069 242° Southwest  Level FlightAware Approximate
10:18AM 36.6216 140.0719 242° Southwest  Level FlightAware Approximate
10:19AM 36.5635 139.9371 242° Southwest  Level FlightAware Approximate
10:20AM 36.5054 139.8024 242° Southwest  Level FlightAware Approximate
10:21AM 36.4471 139.6680 242° Southwest  Level FlightAware Approximate
10:22AM 36.3886 139.5338 242° Southwest  Level FlightAware Approximate
10:23AM 36.3300 139.3997 242° Southwest  Level FlightAware Approximate
10:24AM 36.2713 139.2659 241° Southwest  Level FlightAware Approximate
10:25AM 36.2123 139.1323 241° Southwest  Level FlightAware Approximate
10:26AM 36.1531 138.9990 241° Southwest  Level FlightAware Approximate
10:27AM 36.0936 138.8660 241° Southwest  Level FlightAware Approximate
10:28AM 36.0339 138.7332 241° Southwest  Level FlightAware Approximate
10:29AM 35.9741 138.6006 241° Southwest  Level FlightAware Approximate
10:30AM 35.9141 138.4682 241° Southwest  Level FlightAware Approximate
10:31AM 35.8540 138.3360 241° Southwest  Level FlightAware Approximate
10:32AM 35.7937 138.2041 241° Southwest  Level FlightAware Approximate
10:33AM 35.7333 138.0723 241° Southwest  Level FlightAware Approximate
10:34AM 35.6727 137.9407 240° Southwest  Level FlightAware Approximate
10:35AM 35.6120 137.8093 240° Southwest  Level FlightAware Approximate
10:36AM 35.5566 137.6745 244° Southwest  Level FlightAware Approximate
10:37AM 35.5024 137.5391 244° Southwest  Level FlightAware Approximate
10:38AM 35.4299 137.4254 209° Southwest  Level FlightAware Approximate
10:39AM 35.3220 137.3532 209° Southwest  Level FlightAware Approximate
10:40AM 35.2142 137.2813 209° Southwest  Level FlightAware Approximate
10:41AM 35.1063 137.2096 209° Southwest  Level FlightAware Approximate
10:42AM 34.9977 137.1393 208° Southwest  Level FlightAware Approximate
10:43AM 34.8889 137.0699 208° Southwest  Level FlightAware Approximate
10:44AM 34.7800 137.0007 208° Southwest  Level FlightAware Approximate
10:45AM 34.6738 136.9263 217° Southwest  Level FlightAware Approximate
10:46AM 34.5752 136.8373 217° Southwest  Level FlightAware Approximate
10:47AM 34.4766 136.7486 217° Southwest  Level FlightAware Approximate
10:48AM 34.3778 136.6600 217° Southwest  Level FlightAware Approximate
10:49AM 34.2827 136.5660 220° Southwest  Level FlightAware Approximate
10:50AM 34.1825 136.4825 220° Southwest  Level FlightAware Approximate
10:51AM 34.0879 136.3878 220° Southwest  Level FlightAware Approximate
10:52AM 33.9907 136.2971 218° Southwest  Level FlightAware Approximate
10:53AM 33.8934 136.2068 218° Southwest  Level FlightAware Approximate
10:54AM 33.7961 136.1167 218° Southwest  Level FlightAware Approximate
10:55AM 33.6986 136.0268 218° Southwest  Level FlightAware Approximate
10:56AM 33.6011 135.9371 217° Southwest  Level FlightAware Approximate
10:57AM 33.5035 135.8476 217° Southwest  Level FlightAware Approximate
10:58AM 33.4099 135.7530 227° Southwest  Level FlightAware Approximate
10:59AM 33.3263 135.6452 227° Southwest  Level FlightAware Approximate
11:00AM 33.2427 135.5376 227° Southwest  Level FlightAware Approximate
11:01AM 33.1590 135.4301 227° Southwest  Level FlightAware Approximate
11:02AM 33.0754 135.3228 228° Southwest  Level FlightAware Approximate
11:03AM 32.9929 135.2142 228° Southwest  Level FlightAware Approximate
11:04AM 32.9103 135.1059 228° Southwest  Level FlightAware Approximate
11:05AM 32.8277 134.9977 228° Southwest  Level FlightAware Approximate
11:06AM 32.7438 134.8910 227° Southwest  Level FlightAware Approximate
11:07AM 32.6596 134.7848 227° Southwest  Level FlightAware Approximate
11:08AM 32.5753 134.6787 227° Southwest  Level FlightAware Approximate
11:09AM 32.4909 134.5728 227° Southwest  Level FlightAware Approximate
11:10AM 32.4065 134.4671 227° Southwest  Level FlightAware Approximate
11:11AM 32.3219 134.3617 227° Southwest  Level FlightAware Approximate
11:12AM 32.2373 134.2564 226° Southwest  Level FlightAware Approximate
11:13AM 32.1526 134.1513 226° Southwest  Level FlightAware Approximate
11:14AM 32.0678 134.0464 226° Southwest  Level FlightAware Approximate
11:15AM 31.9832 133.9414 227° Southwest  Level FlightAware Approximate
11:16AM 31.8990 133.8360 227° Southwest  Level FlightAware Approximate
11:17AM 31.8147 133.7309 226° Southwest  Level FlightAware Approximate
11:18AM 31.7295 133.6267 226° Southwest  Level FlightAware Approximate
11:19AM 31.6443 133.5228 226° Southwest  Level FlightAware Approximate
11:20AM 31.5590 133.4191 226° Southwest  Level FlightAware Approximate
11:21AM 31.4736 133.3155 226° Southwest  Level FlightAware Approximate
11:22AM 31.3882 133.2121 226° Southwest  Level FlightAware Approximate
11:23AM 31.3026 133.1089 226° Southwest  Level FlightAware Approximate
11:24AM 31.2170 133.0059 226° Southwest  Level FlightAware Approximate
11:25AM 31.1313 132.9031 226° Southwest  Level FlightAware Approximate
11:26AM 31.0455 132.8005 226° Southwest  Level FlightAware Approximate
11:27AM 30.9596 132.6980 226° Southwest  Level FlightAware Approximate
11:28AM 30.8737 132.5958 226° Southwest  Level FlightAware Approximate
11:29AM 30.7876 132.4937 226° Southwest  Level FlightAware Approximate
11:30AM 30.7015 132.3918 226° Southwest  Level FlightAware Approximate
11:31AM 30.6153 132.2901 225° Southwest  Level FlightAware Approximate
11:32AM 30.5290 132.1886 225° Southwest  Level FlightAware Approximate
11:33AM 30.4427 132.0872 225° Southwest  Level FlightAware Approximate
11:34AM 30.3563 131.9861 225° Southwest  Level FlightAware Approximate
11:35AM 30.2698 131.8851 225° Southwest  Level FlightAware Approximate
11:36AM 30.1832 131.7843 225° Southwest  Level FlightAware Approximate
11:37AM 30.0965 131.6836 225° Southwest  Level FlightAware Approximate
11:38AM 30.0098 131.5831 225° Southwest  Level FlightAware Approximate
11:39AM 29.9230 131.4828 225° Southwest  Level FlightAware Approximate
11:40AM 29.8362 131.3826 225° Southwest  Level FlightAware Approximate
11:41AM 29.7493 131.2826 225° Southwest  Level FlightAware Approximate
11:42AM 29.6623 131.1828 225° Southwest  Level FlightAware Approximate
11:43AM 29.5753 131.0831 225° Southwest  Level FlightAware Approximate
11:44AM 29.4881 130.9836 225° Southwest  Level FlightAware Approximate
11:45AM 29.4010 130.8842 225° Southwest  Level FlightAware Approximate
11:46AM 29.3137 130.7851 225° Southwest  Level FlightAware Approximate
11:47AM 29.2264 130.6861 225° Southwest  Level FlightAware Approximate
11:48AM 29.1390 130.5872 225° Southwest  Level FlightAware Approximate
11:49AM 29.0515 130.4886 225° Southwest  Level FlightAware Approximate
11:50AM 28.9639 130.3901 225° Southwest  Level FlightAware Approximate
11:51AM 28.8763 130.2918 225° Southwest  Level FlightAware Approximate
11:52AM 28.7886 130.1936 224° Southwest  Level FlightAware Approximate
11:53AM 28.7008 130.0956 224° Southwest  Level FlightAware Approximate
11:54AM 28.6130 129.9978 224° Southwest  Level FlightAware Approximate
11:55AM 28.5252 129.8999 224° Southwest  Level FlightAware Approximate
11:56AM 28.4375 129.8022 224° Southwest  Level FlightAware Approximate
11:57AM 28.3496 129.7047 224° Southwest  Level FlightAware Approximate
11:58AM 28.2617 129.6073 224° Southwest  Level FlightAware Approximate
11:59AM 28.1737 129.5101 224° Southwest  Level FlightAware Approximate
12:00PM 28.0856 129.4130 224° Southwest  Level FlightAware Approximate
12:01PM 27.9975 129.3161 224° Southwest  Level FlightAware Approximate
12:02PM 27.9093 129.2193 224° Southwest  Level FlightAware Approximate
12:03PM 27.8210 129.1227 224° Southwest  Level FlightAware Approximate
12:04PM 27.7327 129.0263 224° Southwest  Level FlightAware Approximate
12:05PM 27.6442 128.9300 224° Southwest  Level FlightAware Approximate
12:06PM 27.5557 128.8339 224° Southwest  Level FlightAware Approximate
12:07PM 27.4672 128.7379 224° Southwest  Level FlightAware Approximate
12:08PM 27.3751 128.6466 218° Southwest  Level FlightAware Approximate
12:09PM 27.2785 128.5613 218° Southwest  Level FlightAware Approximate
12:10PM 27.1817 128.4762 218° Southwest  Level FlightAware Approximate
12:11PM 27.0850 128.3912 218° Southwest  Level FlightAware Approximate
12:12PM 26.9881 128.3065 217° Southwest  Level FlightAware Approximate
12:13PM 26.8902 128.2231 217° Southwest  Level FlightAware Approximate
12:14PM 26.7924 128.1400 217° Southwest  Level FlightAware Approximate
12:15PM 26.6945 128.0569 217° Southwest  Level FlightAware Approximate
12:16PM 26.5985 127.9713 219° Southwest  Level FlightAware Approximate
12:17PM 26.5032 127.8847 219° Southwest  Level FlightAware Approximate
12:18PM 26.4051 127.8021 216° Southwest  Level FlightAware Approximate
12:19PM 26.3063 127.7207 216° Southwest  Level FlightAware Approximate
12:20PM 26.2074 127.6394 216° Southwest  Level FlightAware Approximate
12:21PM 26.0950 127.5851 202° Southwest  Level FlightAware Approximate
12:22PM 25.9814 127.5330 202° Southwest  Level FlightAware Approximate
12:23PM 25.8678 127.4811 202° Southwest  Level FlightAware Approximate
12:24PM 25.7542 127.4292 202° Southwest  Level FlightAware Approximate
12:25PM 25.6406 127.3775 202° Southwest  Level FlightAware Approximate
12:26PM 25.5270 127.3258 202° Southwest  Level FlightAware Approximate
12:27PM 25.4133 127.2741 203° Southwest  Level FlightAware Approximate
12:28PM 25.2999 127.2219 203° Southwest  Level FlightAware Approximate
12:29PM 25.1865 127.1698 203° Southwest  Level FlightAware Approximate
12:30PM 25.0731 127.1178 203° Southwest  Level FlightAware Approximate
12:31PM 24.9597 127.0659 203° Southwest  Level FlightAware Approximate
12:32PM 24.8462 127.0141 203° Southwest  Level FlightAware Approximate
12:33PM 24.7327 126.9623 202° Southwest  Level FlightAware Approximate
12:34PM 24.6192 126.9107 202° Southwest  Level FlightAware Approximate
12:35PM 24.5057 126.8592 202° Southwest  Level FlightAware Approximate
12:36PM 24.3921 126.8077 202° Southwest  Level FlightAware Approximate
12:37PM 24.2786 126.7564 202° Southwest  Level FlightAware Approximate
12:38PM 24.1650 126.7051 202° Southwest  Level FlightAware Approximate
12:39PM 24.0515 126.6536 203° Southwest  Level FlightAware Approximate
12:40PM 23.9381 126.6019 203° Southwest  Level FlightAware Approximate
12:41PM 23.8247 126.5503 203° Southwest  Level FlightAware Approximate
12:42PM 23.7113 126.4989 203° Southwest  Level FlightAware Approximate
12:43PM 23.5979 126.4475 203° Southwest  Level FlightAware Approximate
12:44PM 23.4844 126.3961 203° Southwest  Level FlightAware Approximate
12:45PM 23.3710 126.3449 203° Southwest  Level FlightAware Approximate
12:46PM 23.2575 126.2938 202° Southwest  Level FlightAware Approximate
12:47PM 23.1440 126.2427 202° Southwest  Level FlightAware Approximate
12:48PM 23.0304 126.1918 202° Southwest  Level FlightAware Approximate
12:49PM 22.9169 126.1409 202° Southwest  Level FlightAware Approximate
12:50PM 22.8039 126.0886 203° Southwest  Level FlightAware Approximate
12:51PM 22.6910 126.0361 203° Southwest  Level FlightAware Approximate
12:52PM 22.5781 125.9837 203° Southwest  Level FlightAware Approximate
12:53PM 22.4652 125.9314 203° Southwest  Level FlightAware Approximate
12:54PM 22.3523 125.8792 203° Southwest  Level FlightAware Approximate
12:55PM 22.2394 125.8270 203° Southwest  Level FlightAware Approximate
12:56PM 22.1264 125.7749 203° Southwest  Level FlightAware Approximate
12:57PM 22.0134 125.7230 203° Southwest  Level FlightAware Approximate
12:58PM 21.9004 125.6711 203° Southwest  Level FlightAware Approximate
12:59PM 21.7874 125.6193 203° Southwest  Level FlightAware Approximate
01:00PM 21.6744 125.5675 203° Southwest  Level FlightAware Approximate
01:01PM 21.5613 125.5159 203° Southwest  Level FlightAware Approximate
01:02PM 21.4483 125.4643 203° Southwest  Level FlightAware Approximate
01:03PM 21.3352 125.4128 203° Southwest  Level FlightAware Approximate
01:04PM 21.2221 125.3614 203° Southwest  Level FlightAware Approximate
01:05PM 21.1090 125.3101 203° Southwest  Level FlightAware Approximate
01:06PM 21.0001 125.2501 212° Southwest  Level FlightAware Approximate
01:07PM 20.8881 125.1961 204° Southwest  Level FlightAware Approximate
01:08PM 20.7761 125.1421 204° Southwest  Level FlightAware Approximate
01:09PM 20.6641 125.0883 204° Southwest  Level FlightAware Approximate
01:10PM 20.5521 125.0345 204° Southwest  Level FlightAware Approximate
01:11PM 20.4400 124.9809 204° Southwest  Level FlightAware Approximate
01:12PM 20.3279 124.9273 204° Southwest  Level FlightAware Approximate
01:13PM 20.2158 124.8737 204° Southwest  Level FlightAware Approximate
01:14PM 20.1037 124.8203 204° Southwest  Level FlightAware Approximate
01:15PM 19.9916 124.7669 204° Southwest  Level FlightAware Approximate
01:16PM 19.8795 124.7136 204° Southwest  Level FlightAware Approximate
01:17PM 19.7673 124.6604 204° Southwest  Level FlightAware Approximate
01:18PM 19.6551 124.6073 204° Southwest  Level FlightAware Approximate
01:19PM 19.5430 124.5542 204° Southwest  Level FlightAware Approximate
01:20PM 19.4308 124.5012 204° Southwest  Level FlightAware Approximate
01:21PM 19.3186 124.4483 204° Southwest  Level FlightAware Approximate
01:22PM 19.2063 124.3954 204° Southwest  Level FlightAware Approximate
01:23PM 19.0941 124.3427 204° Southwest  Level FlightAware Approximate
01:24PM 18.9818 124.2899 204° Southwest  Level FlightAware Approximate
01:25PM 18.8695 124.2373 204° Southwest  Level FlightAware Approximate
01:26PM 18.7572 124.1848 204° Southwest  Level FlightAware Approximate
01:27PM 18.6449 124.1322 204° Southwest  Level FlightAware Approximate
01:28PM 18.5326 124.0798 204° Southwest  Level FlightAware Approximate
01:29PM 18.4203 124.0275 204° Southwest  Level FlightAware Approximate
01:30PM 18.3079 123.9752 204° Southwest  Level FlightAware Approximate
01:31PM 18.1956 123.9230 204° Southwest  Level FlightAware Approximate
01:32PM 18.0832 123.8708 204° Southwest  Level FlightAware Approximate
01:33PM 17.9708 123.8187 204° Southwest  Level FlightAware Approximate
01:34PM 17.8584 123.7667 204° Southwest  Level FlightAware Approximate
01:35PM 17.7460 123.7148 204° Southwest  Level FlightAware Approximate
01:36PM 17.6336 123.6629 204° Southwest  Level FlightAware Approximate
01:37PM 17.5212 123.6109 204° Southwest  Level FlightAware Approximate
01:38PM 17.4091 123.5581 204° Southwest  Level FlightAware Approximate
01:39PM 17.2971 123.5054 204° Southwest  Level FlightAware Approximate
01:40PM 17.1851 123.4527 204° Southwest  Level FlightAware Approximate
01:41PM 17.0730 123.4001 204° Southwest  Level FlightAware Approximate
01:42PM 16.9609 123.3476 204° Southwest  Level FlightAware Approximate
01:43PM 16.8488 123.2951 204° Southwest  Level FlightAware Approximate
01:44PM 16.7367 123.2427 204° Southwest  Level FlightAware Approximate
01:45PM 16.6243 123.1910 204° Southwest  Level FlightAware Approximate
01:46PM 16.5119 123.1395 204° Southwest  Level FlightAware Approximate
01:47PM 16.3994 123.0881 204° Southwest  Level FlightAware Approximate
01:48PM 16.2869 123.0367 204° Southwest  Level FlightAware Approximate
01:49PM 16.1744 122.9854 204° Southwest  Level FlightAware Approximate
01:50PM 16.0619 122.9342 204° Southwest  Level FlightAware Approximate
01:51PM 15.9493 122.8830 204° Southwest  Level FlightAware Approximate
01:52PM 15.8368 122.8318 204° Southwest  Level FlightAware Approximate
01:53PM 15.7250 122.7791 206° Southwest  Level FlightAware Approximate
01:54PM 15.6124 122.7283 201° Southwest  Level FlightAware Approximate
01:55PM 15.4978 122.6826 198° South  Level FlightAware Approximate
01:56PM 15.3831 122.6387 213° Southwest  Level FlightAware Approximate
01:57PM 15.2728 122.5836 202° Southwest  Level FlightAware Approximate
01:58PM 15.1597 122.5339 203° Southwest  Level FlightAware Approximate
01:59PM 15.0500 122.4778 213° Southwest  Level FlightAware Approximate
02:00PM 14.9368 122.4295 200° South  Level FlightAware Approximate
02:01PM 14.8216 122.3852 200° South  Level FlightAware Approximate
02:02PM 14.7138 122.3245 209° Southwest  Level FlightAware Approximate
02:03PM 14.6850 122.2071 262° West  Level FlightAware Approximate
02:04PM 14.6677 122.0814 262° West  Level FlightAware Approximate
02:05PM 14.6503 121.9557 262° West  Level FlightAware Approximate
02:06PM 14.6327 121.8301 259° West  Level FlightAware Approximate
02:07PM 14.6101 121.7053 259° West  Level FlightAware Approximate
02:08PM 14.5893 121.5803 261° West  Level FlightAware Approximate
02:09PM 14.5700 121.4549 261° West  Level FlightAware Approximate
02:10PM 14.5562 121.3288 264° West  Level FlightAware Approximate
02:11PM 14.5374 121.2036 258° West  Level FlightAware Approximate
02:12PM 14.5167 121.0789 270° West  Level FlightAware Approximate
02:13PM 14.5167 121.0167 270° West  Level FlightAware Approximate
02:14PM 14.5086 121.0196 270° West  Level Estimated
02:15PM 14.5086 121.0196 270° West  Level Estimated
02:16PM 14.5086 121.0196 270° West  Level Estimated
02:17PM 14.5086 121.0196 270° West  Level Estimated
02:18PM 14.5086 121.0196 270° West  Level Estimated
02:19PM 14.5086 121.0196 270° West  Level Estimated
02:20PM 14.5086 121.0196 270° West  Level Estimated
02:21PM 14.5086 121.0196 270° West  Level Estimated
02:22PM 14.5086 121.0196 270° West  Level Estimated
02:23PM 14.5086 121.0196 270° West  Level Estimated
02:24PM 14.5086 121.0196 270° West  Level Estimated
02:25PM 14.5086 121.0196 270° West  Level Estimated
02:26PM 14.5086 121.0196 270° West  Level Estimated
02:27PM 14.5086 121.0196 270° West  Level Estimated
02:28PM 14.5086 121.0196 270° West  Level Estimated
02:29PM 14.5086 121.0196 270° West  Level Estimated
02:30PM 14.5086 121.0196 270° West  Level Estimated
02:31PM 14.5086 121.0196 270° West  Level Estimated
02:32PM 14.5086 121.0196 270° West  Level Estimated
02:33PM 14.5086 121.0196 270° West  Level Estimated
02:34PM 14.5086 121.0196 270° West  Level Estimated
02:35PM 14.5086 121.0196 270° West  Level Estimated
02:36PM 14.5086 121.0196 270° West  Level Estimated